sensor_id;sensor_type;location;lat;lon;timestamp;pressure;altitude;pressure_sealevel;temperature;humidity
54042;BME280;41156;51.508;5.406;2022-08-19T00:01:27;101231.94;;;19.22;88.94
54042;BME280;41156;51.508;5.406;2022-08-19T00:04:32;101228.25;;;19.06;89.07
54042;BME280;41156;51.508;5.406;2022-08-19T00:07:35;101217.81;;;19.03;89.52
54042;BME280;41156;51.508;5.406;2022-08-19T00:10:35;101218.34;;;19.00;88.93
54042;BME280;41156;51.508;5.406;2022-08-19T00:13:35;101222.69;;;18.96;89.61
54042;BME280;41156;51.508;5.406;2022-08-19T00:16:37;101222.66;;;18.91;90.04
54042;BME280;41156;51.508;5.406;2022-08-19T00:19:39;101222.38;;;18.87;90.20
54042;BME280;41156;51.508;5.406;2022-08-19T00:22:40;101218.47;;;18.83;90.07
54042;BME280;41156;51.508;5.406;2022-08-19T00:25:41;101220.63;;;18.81;90.16
54042;BME280;41156;51.508;5.406;2022-08-19T00:28:41;101223.63;;;18.79;90.73
54042;BME280;41156;51.508;5.406;2022-08-19T00:31:42;101222.81;;;18.79;90.66
54042;BME280;41156;51.508;5.406;2022-08-19T00:34:43;101223.88;;;18.78;90.81
54042;BME280;41156;51.508;5.406;2022-08-19T00:37:43;101229.63;;;18.76;91.12
54042;BME280;41156;51.508;5.406;2022-08-19T00:40:44;101228.25;;;18.74;91.09
54042;BME280;41156;51.508;5.406;2022-08-19T00:44:09;101230.66;;;18.70;93.30
54042;BME280;41156;51.508;5.406;2022-08-19T00:47:09;101229.53;;;18.66;91.52
54042;BME280;41156;51.508;5.406;2022-08-19T00:50:15;101235.53;;;18.63;91.77
54042;BME280;41156;51.508;5.406;2022-08-19T00:53:20;101228.94;;;18.59;91.92
54042;BME280;41156;51.508;5.406;2022-08-19T00:56:22;101239.28;;;18.57;91.43
54042;BME280;41156;51.508;5.406;2022-08-19T00:59:23;101233.25;;;18.55;91.45
54042;BME280;41156;51.508;5.406;2022-08-19T01:02:26;101226.66;;;18.51;91.43
54042;BME280;41156;51.508;5.406;2022-08-19T01:05:28;101232.09;;;18.45;91.55
54042;BME280;41156;51.508;5.406;2022-08-19T01:08:29;101224.38;;;18.42;91.41
54042;BME280;41156;51.508;5.406;2022-08-19T01:11:31;101226.81;;;18.39;91.61
54042;BME280;41156;51.508;5.406;2022-08-19T01:14:33;101233.63;;;18.36;91.78
54042;BME280;41156;51.508;5.406;2022-08-19T01:17:34;101231.38;;;18.33;91.84
54042;BME280;41156;51.508;5.406;2022-08-19T01:20:36;101233.56;;;18.31;91.76
54042;BME280;41156;51.508;5.406;2022-08-19T01:23:36;101223.69;;;18.30;92.40
54042;BME280;41156;51.508;5.406;2022-08-19T01:26:44;101223.13;;;18.28;91.88
54042;BME280;41156;51.508;5.406;2022-08-19T01:29:45;101226.59;;;18.45;91.69
54042;BME280;41156;51.508;5.406;2022-08-19T01:32:45;101228.28;;;18.52;90.83
54042;BME280;41156;51.508;5.406;2022-08-19T01:35:46;101224.22;;;18.54;91.03
54042;BME280;41156;51.508;5.406;2022-08-19T01:38:51;101223.03;;;18.45;91.43
54042;BME280;41156;51.508;5.406;2022-08-19T01:41:52;101221.69;;;18.47;91.24
54042;BME280;41156;51.508;5.406;2022-08-19T01:44:54;101228.00;;;18.48;91.31
54042;BME280;41156;51.508;5.406;2022-08-19T01:47:55;101218.69;;;18.49;91.18
54042;BME280;41156;51.508;5.406;2022-08-19T01:50:55;101222.09;;;18.34;91.85
54042;BME280;41156;51.508;5.406;2022-08-19T01:53:56;101221.69;;;18.20;92.77
54042;BME280;41156;51.508;5.406;2022-08-19T01:57:06;101225.19;;;18.16;93.54
54042;BME280;41156;51.508;5.406;2022-08-19T02:00:11;101225.72;;;18.12;93.48
54042;BME280;41156;51.508;5.406;2022-08-19T02:03:13;101225.66;;;18.07;93.03
54042;BME280;41156;51.508;5.406;2022-08-19T02:06:13;101227.22;;;18.03;93.49
54042;BME280;41156;51.508;5.406;2022-08-19T02:09:14;101225.84;;;18.01;93.48
54042;BME280;41156;51.508;5.406;2022-08-19T02:12:16;101230.16;;;17.97;93.62
54042;BME280;41156;51.508;5.406;2022-08-19T02:15:18;101239.72;;;17.94;93.34
54042;BME280;41156;51.508;5.406;2022-08-19T02:18:19;101244.88;;;17.90;93.73
54042;BME280;41156;51.508;5.406;2022-08-19T02:21:22;101242.63;;;17.87;93.47
54042;BME280;41156;51.508;5.406;2022-08-19T02:24:22;101239.56;;;17.84;93.33
54042;BME280;41156;51.508;5.406;2022-08-19T02:27:23;101249.91;;;17.82;93.67
54042;BME280;41156;51.508;5.406;2022-08-19T02:30:24;101253.16;;;17.79;93.37
54042;BME280;41156;51.508;5.406;2022-08-19T02:33:24;101257.47;;;17.74;93.85
54042;BME280;41156;51.508;5.406;2022-08-19T02:36:25;101253.31;;;17.89;93.59
54042;BME280;41156;51.508;5.406;2022-08-19T02:39:25;101252.28;;;17.95;92.77
54042;BME280;41156;51.508;5.406;2022-08-19T02:42:26;101252.81;;;17.92;92.64
54042;BME280;41156;51.508;5.406;2022-08-19T02:45:26;101249.38;;;17.85;92.69
54042;BME280;41156;51.508;5.406;2022-08-19T02:48:27;101259.97;;;17.98;91.77
54042;BME280;41156;51.508;5.406;2022-08-19T02:51:31;101261.03;;;17.92;91.98
54042;BME280;41156;51.508;5.406;2022-08-19T02:54:31;101268.47;;;17.80;92.46
54042;BME280;41156;51.508;5.406;2022-08-19T02:57:32;101267.75;;;17.67;92.53
54042;BME280;41156;51.508;5.406;2022-08-19T03:00:32;101261.44;;;17.84;92.55
54042;BME280;41156;51.508;5.406;2022-08-19T03:03:32;101264.16;;;17.84;91.80
54042;BME280;41156;51.508;5.406;2022-08-19T03:06:36;101257.59;;;17.85;91.91
54042;BME280;41156;51.508;5.406;2022-08-19T03:09:37;101258.94;;;17.82;91.59
54042;BME280;41156;51.508;5.406;2022-08-19T03:12:38;101255.63;;;17.80;91.20
54042;BME280;41156;51.508;5.406;2022-08-19T03:15:41;101254.78;;;17.80;91.33
54042;BME280;41156;51.508;5.406;2022-08-19T03:18:41;101266.84;;;17.62;92.33
54042;BME280;41156;51.508;5.406;2022-08-19T03:21:43;101266.66;;;17.68;91.79
54042;BME280;41156;51.508;5.406;2022-08-19T03:24:44;101260.63;;;17.66;91.64
54042;BME280;41156;51.508;5.406;2022-08-19T03:27:44;101257.91;;;17.66;91.53
54042;BME280;41156;51.508;5.406;2022-08-19T03:31:07;101255.53;;;17.53;93.33
54042;BME280;41156;51.508;5.406;2022-08-19T03:34:10;101251.78;;;17.59;92.25
54042;BME280;41156;51.508;5.406;2022-08-19T03:37:12;101262.97;;;17.57;91.92
54042;BME280;41156;51.508;5.406;2022-08-19T03:40:12;101252.53;;;17.54;92.21
54042;BME280;41156;51.508;5.406;2022-08-19T03:43:12;101249.19;;;17.30;92.89
54042;BME280;41156;51.508;5.406;2022-08-19T03:46:20;101246.53;;;17.35;93.61
54042;BME280;41156;51.508;5.406;2022-08-19T03:49:22;101242.97;;;17.35;93.63
54042;BME280;41156;51.508;5.406;2022-08-19T03:52:23;101241.56;;;17.32;93.31
54042;BME280;41156;51.508;5.406;2022-08-19T03:55:23;101245.38;;;17.31;93.76
54042;BME280;41156;51.508;5.406;2022-08-19T03:58:23;101239.19;;;17.19;93.62
54042;BME280;41156;51.508;5.406;2022-08-19T04:01:27;101246.78;;;17.34;92.60
54042;BME280;41156;51.508;5.406;2022-08-19T04:04:28;101245.16;;;17.16;93.46
54042;BME280;41156;51.508;5.406;2022-08-19T04:07:29;101255.72;;;17.29;92.54
54042;BME280;41156;51.508;5.406;2022-08-19T04:10:29;101246.97;;;17.27;92.83
54042;BME280;41156;51.508;5.406;2022-08-19T04:13:30;101250.28;;;17.29;92.60
54042;BME280;41156;51.508;5.406;2022-08-19T04:16:30;101246.97;;;17.27;92.54
54042;BME280;41156;51.508;5.406;2022-08-19T04:19:31;101246.13;;;17.27;92.58
54042;BME280;41156;51.508;5.406;2022-08-19T04:22:31;101249.09;;;17.25;92.70
54042;BME280;41156;51.508;5.406;2022-08-19T04:25:37;101251.59;;;17.27;93.17
54042;BME280;41156;51.508;5.406;2022-08-19T04:28:37;101244.38;;;17.04;93.28
54042;BME280;41156;51.508;5.406;2022-08-19T04:31:38;101246.13;;;17.10;93.50
54042;BME280;41156;51.508;5.406;2022-08-19T04:34:40;101234.66;;;16.91;94.28
54042;BME280;41156;51.508;5.406;2022-08-19T04:37:40;101246.31;;;16.86;94.85
54042;BME280;41156;51.508;5.406;2022-08-19T04:40:42;101245.00;;;17.06;93.58
54042;BME280;41156;51.508;5.406;2022-08-19T04:44:01;101238.69;;;16.88;94.29
54042;BME280;41156;51.508;5.406;2022-08-19T04:47:02;101236.63;;;17.12;93.03
54042;BME280;41156;51.508;5.406;2022-08-19T04:50:07;101249.59;;;16.88;94.54
54042;BME280;41156;51.508;5.406;2022-08-19T04:53:09;101250.03;;;17.14;93.41
54042;BME280;41156;51.508;5.406;2022-08-19T04:56:13;101252.91;;;16.90;94.84
54042;BME280;41156;51.508;5.406;2022-08-19T04:59:13;101252.28;;;17.17;93.03
54042;BME280;41156;51.508;5.406;2022-08-19T05:02:14;101262.69;;;17.20;93.09
54042;BME280;41156;51.508;5.406;2022-08-19T05:05:15;101264.69;;;16.91;94.37
54042;BME280;41156;51.508;5.406;2022-08-19T05:08:17;101267.06;;;16.87;95.11
54042;BME280;41156;51.508;5.406;2022-08-19T05:11:25;101271.44;;;16.88;95.61
54042;BME280;41156;51.508;5.406;2022-08-19T05:14:26;101276.91;;;16.88;95.46
54042;BME280;41156;51.508;5.406;2022-08-19T05:17:27;101281.28;;;16.89;95.41
54042;BME280;41156;51.508;5.406;2022-08-19T05:20:27;101283.22;;;16.89;95.49
54042;BME280;41156;51.508;5.406;2022-08-19T05:23:46;101292.78;;;16.91;95.75
54042;BME280;41156;51.508;5.406;2022-08-19T05:26:48;101289.56;;;16.94;96.57
54042;BME280;41156;51.508;5.406;2022-08-19T05:29:49;101296.78;;;17.00;95.88
54042;BME280;41156;51.508;5.406;2022-08-19T05:32:49;101301.59;;;17.10;95.50
54042;BME280;41156;51.508;5.406;2022-08-19T05:35:49;101312.00;;;17.13;96.08
54042;BME280;41156;51.508;5.406;2022-08-19T05:38:50;101311.25;;;17.18;95.77
54042;BME280;41156;51.508;5.406;2022-08-19T05:41:55;101308.59;;;17.23;95.68
54042;BME280;41156;51.508;5.406;2022-08-19T05:44:58;101314.22;;;17.33;96.60
54042;BME280;41156;51.508;5.406;2022-08-19T05:47:58;101313.81;;;17.42;96.07
54042;BME280;41156;51.508;5.406;2022-08-19T05:51:05;101315.56;;;17.48;96.67
54042;BME280;41156;51.508;5.406;2022-08-19T05:54:06;101313.66;;;17.65;95.90
54042;BME280;41156;51.508;5.406;2022-08-19T05:57:07;101308.81;;;17.72;95.29
54042;BME280;41156;51.508;5.406;2022-08-19T06:00:08;101299.19;;;17.87;94.38
54042;BME280;41156;51.508;5.406;2022-08-19T06:03:10;101291.97;;;17.98;93.76
54042;BME280;41156;51.508;5.406;2022-08-19T06:06:12;101292.84;;;18.03;93.97
54042;BME280;41156;51.508;5.406;2022-08-19T06:09:13;101293.50;;;18.10;93.54
54042;BME280;41156;51.508;5.406;2022-08-19T06:12:13;101297.94;;;18.17;93.05
54042;BME280;41156;51.508;5.406;2022-08-19T06:15:14;101283.81;;;18.25;93.32
54042;BME280;41156;51.508;5.406;2022-08-19T06:18:15;101294.06;;;18.12;94.43
54042;BME280;41156;51.508;5.406;2022-08-19T06:21:16;101289.88;;;18.27;94.17
54042;BME280;41156;51.508;5.406;2022-08-19T06:24:22;101288.19;;;18.48;93.25
54042;BME280;41156;51.508;5.406;2022-08-19T06:27:25;101292.34;;;18.51;94.22
54042;BME280;41156;51.508;5.406;2022-08-19T06:30:26;101289.19;;;18.64;93.66
54042;BME280;41156;51.508;5.406;2022-08-19T06:33:27;101289.75;;;18.93;93.47
54042;BME280;41156;51.508;5.406;2022-08-19T06:36:30;101283.72;;;19.23;92.69
54042;BME280;41156;51.508;5.406;2022-08-19T06:39:36;101286.75;;;19.70;91.16
54042;BME280;41156;51.508;5.406;2022-08-19T06:42:38;101279.56;;;20.06;90.55
54042;BME280;41156;51.508;5.406;2022-08-19T06:45:38;101285.47;;;20.46;88.93
54042;BME280;41156;51.508;5.406;2022-08-19T06:48:39;101296.50;;;20.72;88.74
54042;BME280;41156;51.508;5.406;2022-08-19T06:51:44;101294.34;;;20.79;87.00
54042;BME280;41156;51.508;5.406;2022-08-19T06:54:47;101293.81;;;20.87;87.94
54042;BME280;41156;51.508;5.406;2022-08-19T06:57:47;101293.00;;;21.17;87.24
54042;BME280;41156;51.508;5.406;2022-08-19T07:00:47;101291.81;;;21.75;85.61
54042;BME280;41156;51.508;5.406;2022-08-19T07:03:48;101294.66;;;22.30;83.65
54042;BME280;41156;51.508;5.406;2022-08-19T07:06:49;101285.22;;;22.46;82.10
54042;BME280;41156;51.508;5.406;2022-08-19T07:09:51;101283.41;;;22.71;81.31
54042;BME280;41156;51.508;5.406;2022-08-19T07:12:52;101285.44;;;22.95;80.73
54042;BME280;41156;51.508;5.406;2022-08-19T07:15:53;101295.53;;;23.44;79.46
54042;BME280;41156;51.508;5.406;2022-08-19T07:18:54;101296.72;;;23.62;78.38
54042;BME280;41156;51.508;5.406;2022-08-19T07:21:55;101300.97;;;23.49;77.98
54042;BME280;41156;51.508;5.406;2022-08-19T07:24:55;101306.31;;;23.40;77.28
54042;BME280;41156;51.508;5.406;2022-08-19T07:27:56;101309.94;;;23.36;77.22
54042;BME280;41156;51.508;5.406;2022-08-19T07:30:56;101317.94;;;23.61;76.84
54042;BME280;41156;51.508;5.406;2022-08-19T07:33:56;101309.50;;;23.53;76.74
54042;BME280;41156;51.508;5.406;2022-08-19T07:36:56;101310.09;;;23.20;76.23
54042;BME280;41156;51.508;5.406;2022-08-19T07:39:57;101310.59;;;22.83;76.60
54042;BME280;41156;51.508;5.406;2022-08-19T07:42:57;101320.19;;;22.46;77.70
54042;BME280;41156;51.508;5.406;2022-08-19T07:45:58;101320.41;;;22.54;77.25
54042;BME280;41156;51.508;5.406;2022-08-19T07:48:59;101323.34;;;22.18;78.25
54042;BME280;41156;51.508;5.406;2022-08-19T07:52:05;101337.16;;;21.93;79.09
54042;BME280;41156;51.508;5.406;2022-08-19T07:55:07;101346.53;;;21.97;78.59
54042;BME280;41156;51.508;5.406;2022-08-19T07:58:09;101346.81;;;21.95;78.54
54042;BME280;41156;51.508;5.406;2022-08-19T08:01:15;101354.81;;;21.71;79.41
54042;BME280;41156;51.508;5.406;2022-08-19T08:04:17;101349.34;;;21.56;79.77
54042;BME280;41156;51.508;5.406;2022-08-19T08:07:36;101352.63;;;21.58;79.47
54042;BME280;41156;51.508;5.406;2022-08-19T08:10:55;101351.81;;;21.57;79.69
54042;BME280;41156;51.508;5.406;2022-08-19T08:13:56;101353.72;;;21.41;80.34
54042;BME280;41156;51.508;5.406;2022-08-19T08:16:58;101354.81;;;21.20;80.76
54042;BME280;41156;51.508;5.406;2022-08-19T08:19:59;101359.22;;;21.41;80.14
54042;BME280;41156;51.508;5.406;2022-08-19T08:22:59;101359.81;;;21.49;79.86
54042;BME280;41156;51.508;5.406;2022-08-19T08:26:18;101365.56;;;21.57;79.44
54042;BME280;41156;51.508;5.406;2022-08-19T08:29:19;101360.63;;;21.54;79.54
54042;BME280;41156;51.508;5.406;2022-08-19T08:32:19;101365.81;;;21.25;81.02
54042;BME280;41156;51.508;5.406;2022-08-19T08:35:22;101375.16;;;21.39;81.50
54042;BME280;41156;51.508;5.406;2022-08-19T08:38:23;101369.69;;;21.55;80.56
54042;BME280;41156;51.508;5.406;2022-08-19T08:44:43;101378.75;;;21.45;82.28
54042;BME280;41156;51.508;5.406;2022-08-19T08:47:50;101383.72;;;21.53;80.20
54042;BME280;41156;51.508;5.406;2022-08-19T08:50:54;101394.44;;;21.55;80.26
54042;BME280;41156;51.508;5.406;2022-08-19T08:53:56;101395.50;;;21.79;79.87
54042;BME280;41156;51.508;5.406;2022-08-19T08:56:57;101386.66;;;21.98;79.73
54042;BME280;41156;51.508;5.406;2022-08-19T08:59:58;101382.53;;;22.11;79.22
54042;BME280;41156;51.508;5.406;2022-08-19T09:03:02;101382.00;;;22.04;79.88
54042;BME280;41156;51.508;5.406;2022-08-19T09:06:32;101380.09;;;21.89;80.08
54042;BME280;41156;51.508;5.406;2022-08-19T09:09:43;101379.25;;;22.04;79.42
54042;BME280;41156;51.508;5.406;2022-08-19T09:16:16;101372.59;;;22.30;78.63
54042;BME280;41156;51.508;5.406;2022-08-19T09:19:17;101375.06;;;22.27;78.50
54042;BME280;41156;51.508;5.406;2022-08-19T09:22:18;101379.13;;;22.40;78.53
54042;BME280;41156;51.508;5.406;2022-08-19T09:25:22;101382.94;;;22.54;77.80
54042;BME280;41156;51.508;5.406;2022-08-19T09:28:22;101389.00;;;22.56;77.60
54042;BME280;41156;51.508;5.406;2022-08-19T09:31:26;101388.72;;;22.52;76.84
54042;BME280;41156;51.508;5.406;2022-08-19T09:34:26;101392.59;;;22.46;76.88
54042;BME280;41156;51.508;5.406;2022-08-19T09:37:29;101395.44;;;22.21;77.71
54042;BME280;41156;51.508;5.406;2022-08-19T09:40:30;101391.00;;;22.25;77.57
54042;BME280;41156;51.508;5.406;2022-08-19T09:43:32;101391.88;;;22.20;77.82
54042;BME280;41156;51.508;5.406;2022-08-19T09:46:32;101390.72;;;22.31;76.85
54042;BME280;41156;51.508;5.406;2022-08-19T09:49:33;101388.22;;;22.45;76.87
54042;BME280;41156;51.508;5.406;2022-08-19T09:52:33;101394.22;;;22.58;76.81
54042;BME280;41156;51.508;5.406;2022-08-19T09:55:42;101394.44;;;22.66;76.43
54042;BME280;41156;51.508;5.406;2022-08-19T09:58:42;101395.75;;;22.79;75.51
54042;BME280;41156;51.508;5.406;2022-08-19T10:01:42;101395.75;;;22.79;75.96
54042;BME280;41156;51.508;5.406;2022-08-19T10:04:42;101394.34;;;22.87;75.81
54042;BME280;41156;51.508;5.406;2022-08-19T10:08:01;101404.00;;;22.84;75.81
54042;BME280;41156;51.508;5.406;2022-08-19T10:11:04;101405.38;;;22.87;75.85
54042;BME280;41156;51.508;5.406;2022-08-19T10:14:05;101402.03;;;22.95;75.91
54042;BME280;41156;51.508;5.406;2022-08-19T10:17:08;101393.97;;;23.04;75.52
54042;BME280;41156;51.508;5.406;2022-08-19T10:20:09;101397.53;;;23.09;75.33
54042;BME280;41156;51.508;5.406;2022-08-19T10:23:09;101397.22;;;23.16;75.56
54042;BME280;41156;51.508;5.406;2022-08-19T10:26:09;101386.13;;;23.21;75.12
54042;BME280;41156;51.508;5.406;2022-08-19T10:29:10;101389.69;;;23.27;74.72
54042;BME280;41156;51.508;5.406;2022-08-19T10:32:11;101398.69;;;23.38;74.52
54042;BME280;41156;51.508;5.406;2022-08-19T10:35:13;101388.53;;;23.38;74.46
54042;BME280;41156;51.508;5.406;2022-08-19T10:38:13;101394.28;;;23.42;73.98
54042;BME280;41156;51.508;5.406;2022-08-19T10:41:17;101396.47;;;23.45;73.76
54042;BME280;41156;51.508;5.406;2022-08-19T10:44:18;101391.47;;;23.47;73.65
54042;BME280;41156;51.508;5.406;2022-08-19T10:47:19;101388.38;;;23.54;73.49
54042;BME280;41156;51.508;5.406;2022-08-19T10:50:20;101383.59;;;23.64;72.90
54042;BME280;41156;51.508;5.406;2022-08-19T10:53:39;101380.75;;;23.75;72.84
54042;BME280;41156;51.508;5.406;2022-08-19T10:56:39;101379.47;;;23.91;72.05
54042;BME280;41156;51.508;5.406;2022-08-19T10:59:52;101381.50;;;24.10;71.50
54042;BME280;41156;51.508;5.406;2022-08-19T11:02:52;101382.84;;;24.12;71.20
54042;BME280;41156;51.508;5.406;2022-08-19T11:06:04;101380.81;;;24.23;70.51
54042;BME280;41156;51.508;5.406;2022-08-19T11:09:05;101386.78;;;24.30;70.70
54042;BME280;41156;51.508;5.406;2022-08-19T11:12:06;101374.56;;;24.12;71.56
54042;BME280;41156;51.508;5.406;2022-08-19T11:15:08;101374.97;;;24.00;70.93
54042;BME280;41156;51.508;5.406;2022-08-19T11:18:11;101375.72;;;24.06;71.22
54042;BME280;41156;51.508;5.406;2022-08-19T11:21:13;101383.97;;;24.11;71.37
54042;BME280;41156;51.508;5.406;2022-08-19T11:24:17;101393.34;;;24.34;70.08
54042;BME280;41156;51.508;5.406;2022-08-19T11:27:17;101378.16;;;24.37;70.43
54042;BME280;41156;51.508;5.406;2022-08-19T11:30:17;101381.50;;;24.58;70.06
54042;BME280;41156;51.508;5.406;2022-08-19T11:33:18;101373.22;;;24.77;70.05
54042;BME280;41156;51.508;5.406;2022-08-19T11:36:20;101367.78;;;25.43;68.21
54042;BME280;41156;51.508;5.406;2022-08-19T11:39:21;101368.06;;;25.74;67.24
54042;BME280;41156;51.508;5.406;2022-08-19T11:42:22;101363.25;;;25.66;67.51
54042;BME280;41156;51.508;5.406;2022-08-19T11:45:40;101356.91;;;25.79;66.95
54042;BME280;41156;51.508;5.406;2022-08-19T11:48:41;101359.41;;;25.95;66.35
54042;BME280;41156;51.508;5.406;2022-08-19T11:51:42;101363.91;;;25.91;65.81
54042;BME280;41156;51.508;5.406;2022-08-19T11:54:43;101362.78;;;25.92;65.58
54042;BME280;41156;51.508;5.406;2022-08-19T11:57:43;101360.44;;;26.13;64.65
54042;BME280;41156;51.508;5.406;2022-08-19T12:00:43;101352.47;;;26.25;64.80
54042;BME280;41156;51.508;5.406;2022-08-19T12:03:47;101366.31;;;26.25;64.40
54042;BME280;41156;51.508;5.406;2022-08-19T12:06:48;101364.88;;;26.00;64.90
54042;BME280;41156;51.508;5.406;2022-08-19T12:09:50;101369.53;;;25.72;64.80
54042;BME280;41156;51.508;5.406;2022-08-19T12:12:50;101366.16;;;25.42;65.30
54042;BME280;41156;51.508;5.406;2022-08-19T12:15:51;101362.25;;;25.43;65.14
54042;BME280;41156;51.508;5.406;2022-08-19T12:18:53;101365.56;;;25.45;65.09
54042;BME280;41156;51.508;5.406;2022-08-19T12:21:59;101368.28;;;25.12;65.01
54042;BME280;41156;51.508;5.406;2022-08-19T12:25:00;101360.53;;;24.95;66.04
54042;BME280;41156;51.508;5.406;2022-08-19T12:28:01;101359.84;;;25.03;65.48
54042;BME280;41156;51.508;5.406;2022-08-19T12:31:02;101362.03;;;24.87;66.30
54042;BME280;41156;51.508;5.406;2022-08-19T12:34:03;101353.81;;;24.82;66.50
54042;BME280;41156;51.508;5.406;2022-08-19T12:37:05;101351.94;;;24.78;66.23
54042;BME280;41156;51.508;5.406;2022-08-19T12:40:06;101349.22;;;25.10;66.51
54042;BME280;41156;51.508;5.406;2022-08-19T12:43:07;101350.47;;;25.37;66.03
54042;BME280;41156;51.508;5.406;2022-08-19T12:46:07;101347.53;;;25.47;65.80
54042;BME280;41156;51.508;5.406;2022-08-19T12:49:08;101352.66;;;25.40;65.51
54042;BME280;41156;51.508;5.406;2022-08-19T12:52:08;101347.53;;;25.47;65.16
54042;BME280;41156;51.508;5.406;2022-08-19T12:55:09;101348.78;;;25.55;65.48
54042;BME280;41156;51.508;5.406;2022-08-19T12:58:11;101349.44;;;25.80;64.72
54042;BME280;41156;51.508;5.406;2022-08-19T13:01:14;101339.59;;;25.60;65.21
54042;BME280;41156;51.508;5.406;2022-08-19T13:04:15;101332.50;;;25.54;65.66
54042;BME280;41156;51.508;5.406;2022-08-19T13:07:16;101336.84;;;25.41;65.73
54042;BME280;41156;51.508;5.406;2022-08-19T13:10:19;101334.22;;;25.17;65.93
54042;BME280;41156;51.508;5.406;2022-08-19T13:13:20;101328.00;;;25.06;66.55
54042;BME280;41156;51.508;5.406;2022-08-19T13:16:20;101319.28;;;24.99;66.88
54042;BME280;41156;51.508;5.406;2022-08-19T13:19:21;101331.38;;;25.03;67.04
54042;BME280;41156;51.508;5.406;2022-08-19T13:22:23;101333.03;;;25.04;67.45
54042;BME280;41156;51.508;5.406;2022-08-19T13:25:25;101329.78;;;25.16;66.94
54042;BME280;41156;51.508;5.406;2022-08-19T13:28:25;101334.44;;;25.01;67.76
54042;BME280;41156;51.508;5.406;2022-08-19T13:31:28;101334.44;;;25.01;67.90
54042;BME280;41156;51.508;5.406;2022-08-19T13:34:47;101327.72;;;25.07;67.52
54042;BME280;41156;51.508;5.406;2022-08-19T13:37:47;101318.00;;;25.10;67.19
54042;BME280;41156;51.508;5.406;2022-08-19T13:40:49;101325.91;;;25.17;67.26
54042;BME280;41156;51.508;5.406;2022-08-19T13:43:51;101317.34;;;24.99;67.71
54042;BME280;41156;51.508;5.406;2022-08-19T13:46:51;101318.72;;;25.16;67.35
54042;BME280;41156;51.508;5.406;2022-08-19T13:49:52;101318.03;;;25.24;66.98
54042;BME280;41156;51.508;5.406;2022-08-19T13:52:54;101316.72;;;25.02;67.98
54042;BME280;41156;51.508;5.406;2022-08-19T13:55:55;101319.69;;;25.25;67.00
54042;BME280;41156;51.508;5.406;2022-08-19T13:58:55;101312.47;;;24.91;68.39
54042;BME280;41156;51.508;5.406;2022-08-19T14:02:00;101307.41;;;24.79;69.12
54042;BME280;41156;51.508;5.406;2022-08-19T14:05:00;101302.78;;;24.74;68.86
54042;BME280;41156;51.508;5.406;2022-08-19T14:08:01;101304.94;;;24.78;69.13
54042;BME280;41156;51.508;5.406;2022-08-19T14:11:01;101293.13;;;25.10;68.16
54042;BME280;41156;51.508;5.406;2022-08-19T14:14:01;101299.50;;;25.24;68.25
54042;BME280;41156;51.508;5.406;2022-08-19T14:17:05;101298.09;;;25.27;67.79
54042;BME280;41156;51.508;5.406;2022-08-19T14:20:08;101306.22;;;25.51;67.24
54042;BME280;41156;51.508;5.406;2022-08-19T14:23:09;101295.50;;;25.63;67.33
54042;BME280;41156;51.508;5.406;2022-08-19T14:26:13;101300.72;;;25.93;66.82
54042;BME280;41156;51.508;5.406;2022-08-19T14:29:14;101285.94;;;26.39;66.36
54042;BME280;41156;51.508;5.406;2022-08-19T14:32:14;101289.00;;;26.51;65.57
54042;BME280;41156;51.508;5.406;2022-08-19T14:35:15;101278.72;;;26.52;65.42
54042;BME280;41156;51.508;5.406;2022-08-19T14:38:19;101273.66;;;26.31;64.97
54042;BME280;41156;51.508;5.406;2022-08-19T14:41:22;101283.41;;;26.29;65.55
54042;BME280;41156;51.508;5.406;2022-08-19T14:44:22;101280.44;;;26.25;65.34
54042;BME280;41156;51.508;5.406;2022-08-19T14:47:22;101278.28;;;26.22;65.49
54042;BME280;41156;51.508;5.406;2022-08-19T14:50:23;101271.72;;;26.18;65.25
54042;BME280;41156;51.508;5.406;2022-08-19T14:53:23;101277.66;;;26.25;65.35
54042;BME280;41156;51.508;5.406;2022-08-19T14:56:26;101284.13;;;26.20;64.63
54042;BME280;41156;51.508;5.406;2022-08-19T14:59:27;101286.31;;;26.10;65.31
54042;BME280;41156;51.508;5.406;2022-08-19T15:02:27;101278.44;;;26.03;65.53
54042;BME280;41156;51.508;5.406;2022-08-19T15:05:28;101277.19;;;25.95;65.44
54042;BME280;41156;51.508;5.406;2022-08-19T15:08:29;101280.03;;;25.90;65.55
54042;BME280;41156;51.508;5.406;2022-08-19T15:11:30;101277.47;;;25.94;65.53
54042;BME280;41156;51.508;5.406;2022-08-19T15:14:32;101279.66;;;25.97;65.44
54042;BME280;41156;51.508;5.406;2022-08-19T15:17:34;101284.22;;;25.88;65.61
54042;BME280;41156;51.508;5.406;2022-08-19T15:20:37;101283.31;;;25.92;65.85
54042;BME280;41156;51.508;5.406;2022-08-19T15:23:38;101285.69;;;25.99;65.10
54042;BME280;41156;51.508;5.406;2022-08-19T15:26:39;101280.44;;;26.11;64.64
54042;BME280;41156;51.508;5.406;2022-08-19T15:29:39;101282.31;;;26.02;65.09
54042;BME280;41156;51.508;5.406;2022-08-19T15:32:40;101285.28;;;26.06;64.65
54042;BME280;41156;51.508;5.406;2022-08-19T15:35:41;101289.97;;;25.77;65.40
54042;BME280;41156;51.508;5.406;2022-08-19T15:38:42;101286.47;;;25.58;65.66
54042;BME280;41156;51.508;5.406;2022-08-19T15:41:42;101287.50;;;25.48;65.99
54042;BME280;41156;51.508;5.406;2022-08-19T15:44:43;101291.59;;;25.51;66.25
54042;BME280;41156;51.508;5.406;2022-08-19T15:47:43;101283.69;;;25.58;65.86
54042;BME280;41156;51.508;5.406;2022-08-19T15:50:43;101289.03;;;25.54;65.72
54042;BME280;41156;51.508;5.406;2022-08-19T15:53:44;101297.22;;;25.45;65.97
54042;BME280;41156;51.508;5.406;2022-08-19T15:56:45;101295.34;;;25.27;66.18
54042;BME280;41156;51.508;5.406;2022-08-19T16:00:05;101293.66;;;25.26;66.32